Time;durP1;ratioP1;P1;durP2;ratioP2;P2;SDS_P1;SDS_P2;PMS_P1;PMS_P2;Temp;Humidity;BMP_temperature;BMP_pressure;BME280_temperature;BME280_humidity;BME280_pressure;Samples;Min_cycle;Max_cycle;Signal;HPM_P1;HPM_P2
2022/07/26 00:01:35;;;;;;;;;;;28.10;47.00;;;;;;5026688;28;19936;-76
2022/07/26 00:04:02;;;;;;;;;;;28.00;47.00;;;;;;5018584;28;19933;-76
2022/07/26 00:06:28;;;;;;;;;;;28.00;47.10;;;;;;5024443;28;19929;-77
2022/07/26 00:08:56;;;;;;;;;;;28.00;47.10;;;;;;5017970;28;20401;-76
2022/07/26 00:11:24;;;;;;;;;;;28.00;47.10;;;;;;5027352;28;20389;-76
2022/07/26 00:13:51;;;;;;;;;;;28.00;47.20;;;;;;5021324;28;19933;-76
2022/07/26 00:16:18;;;;;;;;;;;28.00;47.30;;;;;;5017547;28;20468;-77
2022/07/26 00:18:46;;;;;;;;;;;27.90;47.20;;;;;;5018304;28;20727;-77
2022/07/26 00:21:12;;;;;;;;;;;27.90;47.30;;;;;;5022832;28;20028;-78
2022/07/26 00:23:39;;;;;;;;;;;27.90;47.40;;;;;;5017764;28;19936;-77
2022/07/26 00:26:07;;;;;;;;;;;27.80;47.40;;;;;;5020986;28;20309;-77
2022/07/26 00:28:33;;;;;;;;;;;27.90;47.50;;;;;;5021053;28;20638;-76
2022/07/26 00:31:00;;;;;;;;;;;27.80;47.50;;;;;;5018684;28;19929;-76
2022/07/26 00:33:27;;;;;;;;;;;27.80;47.60;;;;;;5018013;28;19952;-77
2022/07/26 00:35:53;;;;;;;;;;;27.80;47.50;;;;;;5018660;28;20351;-78
2022/07/26 00:38:20;;;;;;;;;;;27.70;47.60;;;;;;5017980;28;20607;-76
2022/07/26 00:40:46;;;;;;;;;;;27.80;47.60;;;;;;5019297;28;19936;-76
2022/07/26 00:43:14;;;;;;;;;;;27.70;47.60;;;;;;5019422;28;19936;-77
2022/07/26 00:45:41;;;;;;;;;;;27.70;47.70;;;;;;5020777;28;20393;-76
2022/07/26 00:48:07;;;;;;;;;;;27.70;47.70;;;;;;5020258;28;19929;-77
2022/07/26 00:50:34;;;;;;;;;;;27.60;47.60;;;;;;5019767;28;19926;-77
2022/07/26 00:53:01;;;;;;;;;;;27.60;47.70;;;;;;5016985;28;20397;-77
2022/07/26 00:55:27;;;;;;;;;;;27.60;47.90;;;;;;5019857;28;19936;-77
2022/07/26 00:57:54;;;;;;;;;;;27.60;47.90;;;;;;5022501;28;19929;-76
2022/07/26 01:00:25;;;;;;;;;;;27.60;47.90;;;;;;5020029;28;19937;-76
2022/07/26 01:02:51;;;;;;;;;;;27.60;47.90;;;;;;5020069;28;19979;-76
2022/07/26 01:05:18;;;;;;;;;;;27.50;48.10;;;;;;5018407;28;21287;-76
2022/07/26 01:07:46;;;;;;;;;;;27.50;48.00;;;;;;5017218;28;19929;-77
2022/07/26 01:10:12;;;;;;;;;;;27.40;48.00;;;;;;5018213;28;21161;-76
2022/07/26 01:12:39;;;;;;;;;;;27.50;48.20;;;;;;5023035;28;19936;-76
2022/07/26 01:15:06;;;;;;;;;;;27.40;48.20;;;;;;5019269;28;19929;-77
2022/07/26 01:17:35;;;;;;;;;;;27.40;48.10;;;;;;5018408;28;19929;-76
2022/07/26 01:20:01;;;;;;;;;;;27.40;48.20;;;;;;5021863;28;19933;-76
2022/07/26 01:22:29;;;;;;;;;;;27.40;48.30;;;;;;5021328;28;19933;-77
2022/07/26 01:24:56;;;;;;;;;;;27.40;48.30;;;;;;5016905;28;19933;-77
2022/07/26 01:27:22;;;;;;;;;;;27.30;48.30;;;;;;5024483;28;19936;-77
2022/07/26 01:29:50;;;;;;;;;;;27.30;48.30;;;;;;5020528;28;19936;-77
2022/07/26 01:32:17;;;;;;;;;;;27.30;48.50;;;;;;5016437;28;19940;-76
2022/07/26 01:34:43;;;;;;;;;;;27.20;48.50;;;;;;5018370;28;19933;-76
2022/07/26 01:37:10;;;;;;;;;;;27.20;48.60;;;;;;5019762;28;19929;-78
2022/07/26 01:39:38;;;;;;;;;;;27.20;48.80;;;;;;5023415;28;19936;-76
2022/07/26 01:42:05;;;;;;;;;;;27.20;49.50;;;;;;5025728;28;19932;-77
2022/07/26 01:44:31;;;;;;;;;;;27.20;49.20;;;;;;5021961;28;19940;-77
2022/07/26 01:46:58;;;;;;;;;;;27.10;49.40;;;;;;5021216;28;19936;-76
2022/07/26 01:49:26;;;;;;;;;;;27.10;49.40;;;;;;5017586;28;21433;-76
2022/07/26 01:51:53;;;;;;;;;;;27.10;49.80;;;;;;5019747;28;20595;-76
2022/07/26 01:54:20;;;;;;;;;;;27.10;50.00;;;;;;5018159;28;19933;-75
2022/07/26 01:56:47;;;;;;;;;;;27.10;50.10;;;;;;5020037;28;19936;-75
2022/07/26 01:59:14;;;;;;;;;;;27.00;50.40;;;;;;5018676;28;19932;-77
2022/07/26 02:01:41;;;;;;;;;;;27.00;50.60;;;;;;5024495;28;19940;-77
2022/07/26 02:04:57;;;;;;;;;;;26.90;50.80;;;;;;5022151;28;19936;-77
2022/07/26 02:06:54;;;;;;;;;;;26.90;50.90;;;;;;5022050;28;19929;-77
2022/07/26 02:09:20;;;;;;;;;;;26.90;51.10;;;;;;5023609;28;19936;-77
2022/07/26 02:11:49;;;;;;;;;;;26.80;51.20;;;;;;5024972;28;19936;-78
2022/07/26 02:14:15;;;;;;;;;;;26.80;51.40;;;;;;5020895;28;19929;-76
2022/07/26 02:16:42;;;;;;;;;;;26.80;51.40;;;;;;5021207;28;19940;-77
2022/07/26 02:19:09;;;;;;;;;;;26.80;51.50;;;;;;5025691;28;19932;-78
2022/07/26 02:21:35;;;;;;;;;;;26.70;51.60;;;;;;5018240;28;19936;-77
2022/07/26 02:24:02;;;;;;;;;;;26.70;51.70;;;;;;5019897;28;19929;-77
2022/07/26 02:26:28;;;;;;;;;;;26.70;51.80;;;;;;5019902;28;19933;-76
2022/07/26 02:28:56;;;;;;;;;;;26.60;51.80;;;;;;5020412;28;19933;-76
2022/07/26 02:31:23;;;;;;;;;;;26.60;51.90;;;;;;5020131;28;19932;-77
2022/07/26 02:33:49;;;;;;;;;;;26.60;52.00;;;;;;5024740;28;20322;-78
2022/07/26 02:36:16;;;;;;;;;;;26.60;52.00;;;;;;5030551;28;19967;-77
2022/07/26 02:38:42;;;;;;;;;;;26.50;52.10;;;;;;5026560;28;19929;-77
2022/07/26 02:41:09;;;;;;;;;;;26.50;52.30;;;;;;5027476;28;20305;-77
2022/07/26 02:43:35;;;;;;;;;;;26.50;52.40;;;;;;5019534;28;20380;-77
2022/07/26 02:46:03;;;;;;;;;;;26.40;52.30;;;;;;5022232;28;19941;-77
2022/07/26 02:48:30;;;;;;;;;;;26.40;52.30;;;;;;5020140;28;19938;-77
2022/07/26 02:50:57;;;;;;;;;;;26.40;52.50;;;;;;5019684;28;21078;-76
2022/07/26 02:53:23;;;;;;;;;;;26.40;52.70;;;;;;5015199;28;19975;-77
2022/07/26 02:55:50;;;;;;;;;;;26.30;52.40;;;;;;5020122;28;19951;-77
2022/07/26 02:58:20;;;;;;;;;;;26.30;52.50;;;;;;5026247;28;20447;-76
2022/07/26 03:00:46;;;;;;;;;;;26.30;52.70;;;;;;5025731;28;20312;-77
2022/07/26 03:03:14;;;;;;;;;;;26.30;52.70;;;;;;5023707;28;19929;-77
2022/07/26 03:05:41;;;;;;;;;;;26.20;52.60;;;;;;5019903;28;19925;-76
2022/07/26 03:08:08;;;;;;;;;;;26.20;52.90;;;;;;5019428;28;19960;-78
2022/07/26 03:10:35;;;;;;;;;;;26.20;53.00;;;;;;5020294;28;20011;-77
2022/07/26 03:13:01;;;;;;;;;;;26.10;53.00;;;;;;5020735;28;19928;-77
2022/07/26 03:15:28;;;;;;;;;;;26.10;53.10;;;;;;5020530;28;19929;-77
2022/07/26 03:17:54;;;;;;;;;;;26.10;53.00;;;;;;5019012;28;19936;-77
2022/07/26 03:20:22;;;;;;;;;;;26.10;53.10;;;;;;5023282;28;20008;-77
2022/07/26 03:22:49;;;;;;;;;;;26.00;53.10;;;;;;5021311;28;19928;-76
2022/07/26 03:25:16;;;;;;;;;;;26.00;53.20;;;;;;5020274;28;19926;-76
2022/07/26 03:27:42;;;;;;;;;;;26.00;53.80;;;;;;5023288;28;20076;-77
2022/07/26 03:30:09;;;;;;;;;;;25.90;53.30;;;;;;5017531;28;19933;-77
2022/07/26 03:32:36;;;;;;;;;;;25.90;53.40;;;;;;5017605;28;19933;-76
2022/07/26 03:35:03;;;;;;;;;;;26.00;53.60;;;;;;5025138;28;19932;-76
2022/07/26 03:37:31;;;;;;;;;;;25.80;53.50;;;;;;5022982;28;19929;-77
2022/07/26 03:39:58;;;;;;;;;;;25.80;53.50;;;;;;5018771;28;19951;-77
2022/07/26 03:42:24;;;;;;;;;;;25.80;53.60;;;;;;5022347;28;20743;-77
2022/07/26 03:44:51;;;;;;;;;;;25.80;53.60;;;;;;5024039;28;19929;-77
2022/07/26 03:47:17;;;;;;;;;;;25.70;53.70;;;;;;5021068;28;19929;-76
2022/07/26 03:49:44;;;;;;;;;;;25.70;53.70;;;;;;5019568;28;19929;-77
2022/07/26 03:52:10;;;;;;;;;;;25.70;53.80;;;;;;5019407;28;20574;-77
2022/07/26 03:54:38;;;;;;;;;;;25.70;54.60;;;;;;5019201;28;19933;-77
2022/07/26 03:57:04;;;;;;;;;;;25.60;53.90;;;;;;5021283;28;19929;-77
2022/07/26 03:59:30;;;;;;;;;;;25.60;54.00;;;;;;5020096;28;21863;-77
2022/07/26 04:01:57;;;;;;;;;;;25.60;53.90;;;;;;5021994;28;19936;-76
2022/07/26 04:04:24;;;;;;;;;;;25.60;53.90;;;;;;5017607;28;19936;-77
2022/07/26 04:06:50;;;;;;;;;;;25.50;53.90;;;;;;5018652;28;19933;-77
2022/07/26 04:09:17;;;;;;;;;;;25.50;54.20;;;;;;5018305;28;19929;-78
2022/07/26 04:11:46;;;;;;;;;;;25.50;54.40;;;;;;5023239;28;19936;-77
2022/07/26 04:14:13;;;;;;;;;;;25.50;54.40;;;;;;5026087;28;19939;-77
2022/07/26 04:16:39;;;;;;;;;;;25.50;54.50;;;;;;5017022;28;19933;-76
2022/07/26 04:19:06;;;;;;;;;;;25.40;54.50;;;;;;5022244;28;19933;-77
2022/07/26 04:21:33;;;;;;;;;;;25.40;54.50;;;;;;5020299;28;19929;-76
2022/07/26 04:24:00;;;;;;;;;;;25.30;54.30;;;;;;5015987;28;19937;-77
2022/07/26 04:26:28;;;;;;;;;;;25.40;54.40;;;;;;5017125;28;19994;-76
2022/07/26 04:28:56;;;;;;;;;;;25.30;54.70;;;;;;5027297;28;19936;-76
2022/07/26 04:31:22;;;;;;;;;;;25.30;54.60;;;;;;5018765;28;20036;-77
2022/07/26 04:33:49;;;;;;;;;;;25.30;54.70;;;;;;5020730;28;19929;-76
2022/07/26 04:36:15;;;;;;;;;;;25.30;54.80;;;;;;5023313;28;19928;-76
2022/07/26 04:38:42;;;;;;;;;;;25.30;54.80;;;;;;5018797;28;19933;-78
2022/07/26 04:41:09;;;;;;;;;;;25.20;54.80;;;;;;5018887;28;19929;-75
2022/07/26 04:43:35;;;;;;;;;;;25.20;54.80;;;;;;5018579;28;19945;-76
2022/07/26 04:46:03;;;;;;;;;;;25.20;54.80;;;;;;5021448;28;19932;-76
2022/07/26 04:48:30;;;;;;;;;;;25.20;54.90;;;;;;5019065;28;20377;-77
2022/07/26 04:50:56;;;;;;;;;;;25.10;54.80;;;;;;5021409;28;20432;-76
2022/07/26 04:53:23;;;;;;;;;;;25.10;54.90;;;;;;5015313;28;19936;-77
2022/07/26 04:55:49;;;;;;;;;;;25.10;54.90;;;;;;5017589;28;19936;-77
2022/07/26 04:58:16;;;;;;;;;;;25.10;55.10;;;;;;5017799;28;20777;-76
2022/07/26 05:00:43;;;;;;;;;;;25.10;55.10;;;;;;5020083;28;19933;-77
2022/07/26 05:03:10;;;;;;;;;;;25.00;55.00;;;;;;5013095;28;20710;-75
2022/07/26 05:05:37;;;;;;;;;;;25.00;55.00;;;;;;5016757;28;20364;-76
2022/07/26 05:08:04;;;;;;;;;;;25.00;55.00;;;;;;5015922;28;19933;-76
2022/07/26 05:10:31;;;;;;;;;;;25.00;55.10;;;;;;5019093;28;19929;-76
2022/07/26 05:12:58;;;;;;;;;;;25.00;55.20;;;;;;5019109;28;19933;-76
2022/07/26 05:15:25;;;;;;;;;;;25.00;55.30;;;;;;5019870;28;20591;-76
2022/07/26 05:17:52;;;;;;;;;;;25.00;55.30;;;;;;5023083;28;20018;-74
2022/07/26 05:20:20;;;;;;;;;;;24.90;55.30;;;;;;5019118;28;19929;-77
2022/07/26 05:22:46;;;;;;;;;;;24.90;55.40;;;;;;5013246;28;20012;-76
2022/07/26 05:25:13;;;;;;;;;;;24.90;55.40;;;;;;5015577;28;19945;-76
2022/07/26 05:27:40;;;;;;;;;;;24.90;55.50;;;;;;5016933;28;19929;-76
2022/07/26 05:30:08;;;;;;;;;;;24.90;55.30;;;;;;5020356;28;20495;-76
2022/07/26 05:32:34;;;;;;;;;;;24.80;55.50;;;;;;5012414;28;19929;-77
2022/07/26 05:35:01;;;;;;;;;;;24.80;55.60;;;;;;5018558;28;19936;-77
2022/07/26 05:37:29;;;;;;;;;;;24.80;55.60;;;;;;5025347;28;19936;-77
2022/07/26 05:39:55;;;;;;;;;;;24.80;55.60;;;;;;5020588;28;19929;-77
2022/07/26 05:42:22;;;;;;;;;;;24.80;55.60;;;;;;5017276;28;20538;-76
2022/07/26 05:44:49;;;;;;;;;;;24.80;55.60;;;;;;5014105;28;20381;-76
2022/07/26 05:47:15;;;;;;;;;;;24.70;55.50;;;;;;5017554;28;19936;-77
2022/07/26 05:49:42;;;;;;;;;;;24.70;55.50;;;;;;5014269;28;20410;-78
2022/07/26 05:52:09;;;;;;;;;;;24.70;55.40;;;;;;5023804;28;20439;-78
2022/07/26 05:54:36;;;;;;;;;;;24.70;55.40;;;;;;5017497;28;19929;-77
2022/07/26 05:57:03;;;;;;;;;;;24.70;55.40;;;;;;5015324;28;19928;-76
2022/07/26 05:59:31;;;;;;;;;;;24.70;55.50;;;;;;5017317;28;19933;-77
2022/07/26 06:01:57;;;;;;;;;;;24.70;55.60;;;;;;5015287;28;19943;-77
2022/07/26 06:04:24;;;;;;;;;;;24.70;55.60;;;;;;5021604;28;19941;-76
2022/07/26 06:06:53;;;;;;;;;;;24.60;54.60;;;;;;5029107;28;19932;-77
2022/07/26 06:09:20;;;;;;;;;;;24.30;55.40;;;;;;5020889;28;20019;-78
2022/07/26 06:11:47;;;;;;;;;;;24.30;55.80;;;;;;5024116;28;19936;-76
2022/07/26 06:14:14;;;;;;;;;;;24.20;56.00;;;;;;5014066;28;19942;-75
2022/07/26 06:16:40;;;;;;;;;;;24.20;56.30;;;;;;5017979;28;19929;-77
2022/07/26 06:19:07;;;;;;;;;;;24.30;56.20;;;;;;5009473;28;19936;-77
2022/07/26 06:21:34;;;;;;;;;;;24.30;55.20;;;;;;5013744;28;19929;-76
2022/07/26 06:24:00;;;;;;;;;;;24.20;54.70;;;;;;5015412;28;19932;-77
2022/07/26 06:26:27;;;;;;;;;;;24.00;55.00;;;;;;5015535;28;19940;-77
2022/07/26 06:28:55;;;;;;;;;;;24.00;55.60;;;;;;5020104;28;20340;-79
2022/07/26 06:31:21;;;;;;;;;;;24.00;55.60;;;;;;5016411;28;19929;-77
2022/07/26 06:33:48;;;;;;;;;;;24.10;55.50;;;;;;5017601;28;20600;-77
2022/07/26 06:36:15;;;;;;;;;;;24.10;55.50;;;;;;5010368;28;19963;-77
2022/07/26 06:38:41;;;;;;;;;;;24.20;55.40;;;;;;5015213;28;19933;-77
2022/07/26 06:41:08;;;;;;;;;;;24.20;55.40;;;;;;5021193;28;19962;-77
2022/07/26 06:43:34;;;;;;;;;;;24.20;55.20;;;;;;5018440;28;19933;-77
2022/07/26 06:46:02;;;;;;;;;;;24.30;55.00;;;;;;5019750;28;19975;-77
2022/07/26 06:48:29;;;;;;;;;;;24.30;54.80;;;;;;5020149;28;19936;-77
2022/07/26 06:50:55;;;;;;;;;;;24.30;54.80;;;;;;5022386;28;19951;-77
2022/07/26 06:53:22;;;;;;;;;;;24.40;54.70;;;;;;5025202;28;20236;-77
2022/07/26 06:55:48;;;;;;;;;;;24.40;54.70;;;;;;5024013;28;19929;-77
2022/07/26 06:58:15;;;;;;;;;;;24.40;54.50;;;;;;5022751;28;19933;-78
2022/07/26 07:00:42;;;;;;;;;;;24.50;54.40;;;;;;5017608;28;20046;-77
2022/07/26 07:03:10;;;;;;;;;;;24.40;54.40;;;;;;5018111;28;20569;-77
2022/07/26 07:05:37;;;;;;;;;;;24.50;54.30;;;;;;5018013;28;19937;-78
2022/07/26 07:08:04;;;;;;;;;;;24.50;54.30;;;;;;5020985;28;19929;-77
2022/07/26 07:10:30;;;;;;;;;;;24.50;54.20;;;;;;5019064;28;19983;-75
2022/07/26 07:12:57;;;;;;;;;;;24.50;54.10;;;;;;5017220;28;19929;-77
2022/07/26 07:15:23;;;;;;;;;;;24.50;54.10;;;;;;5018393;28;19936;-77
2022/07/26 07:17:51;;;;;;;;;;;24.50;54.10;;;;;;5018312;28;19933;-77
2022/07/26 07:20:19;;;;;;;;;;;24.50;53.90;;;;;;5017240;28;19929;-78
2022/07/26 07:22:45;;;;;;;;;;;24.50;53.90;;;;;;5019025;28;20584;-76
2022/07/26 07:25:12;;;;;;;;;;;24.50;54.00;;;;;;5021807;28;19929;-76
2022/07/26 07:27:38;;;;;;;;;;;24.50;53.80;;;;;;5017105;28;19967;-77
2022/07/26 07:30:05;;;;;;;;;;;24.50;53.80;;;;;;5013768;28;19936;-77
2022/07/26 07:32:32;;;;;;;;;;;24.50;53.40;;;;;;5021622;28;19929;-80
2022/07/26 07:34:58;;;;;;;;;;;24.50;53.40;;;;;;5019662;28;19948;-77
2022/07/26 07:37:27;;;;;;;;;;;24.50;53.30;;;;;;5014717;28;19933;-77
2022/07/26 07:39:53;;;;;;;;;;;24.50;53.30;;;;;;5015263;28;20427;-77
2022/07/26 07:42:20;;;;;;;;;;;24.50;53.10;;;;;;5017835;28;19929;-73
2022/07/26 07:44:48;;;;;;;;;;;24.60;53.10;;;;;;5018234;28;19929;-73
2022/07/26 07:47:15;;;;;;;;;;;24.50;52.70;;;;;;5022460;28;19929;-71
2022/07/26 07:49:41;;;;;;;;;;;24.50;52.60;;;;;;5020357;28;19936;-72
2022/07/26 07:52:08;;;;;;;;;;;24.60;52.30;;;;;;5024038;28;19933;-71
2022/07/26 07:54:36;;;;;;;;;;;24.60;52.10;;;;;;5021196;28;19928;-70
2022/07/26 07:57:02;;;;;;;;;;;24.60;52.10;;;;;;5021777;28;19929;-72
2022/07/26 07:59:29;;;;;;;;;;;24.60;52.30;;;;;;5016184;28;20579;-71
2022/07/26 08:01:56;;;;;;;;;;;24.60;52.00;;;;;;5019437;28;19936;-72
2022/07/26 08:04:22;;;;;;;;;;;24.60;52.10;;;;;;5020390;28;20312;-71
2022/07/26 08:06:49;;;;;;;;;;;24.60;52.00;;;;;;5021553;28;19983;-71
2022/07/26 08:09:15;;;;;;;;;;;24.60;52.10;;;;;;5019575;28;20690;-70
2022/07/26 08:11:43;;;;;;;;;;;24.70;51.90;;;;;;5020776;28;19933;-74
2022/07/26 08:14:10;;;;;;;;;;;24.70;51.80;;;;;;5020029;28;19940;-71
2022/07/26 08:16:37;;;;;;;;;;;24.70;51.90;;;;;;5021895;28;19980;-72
2022/07/26 08:19:04;;;;;;;;;;;24.70;52.00;;;;;;5012736;28;19940;-71
2022/07/26 08:21:30;;;;;;;;;;;24.70;51.80;;;;;;5021680;28;20647;-71
2022/07/26 08:23:57;;;;;;;;;;;24.70;51.80;;;;;;5015783;28;19929;-75
2022/07/26 08:26:24;;;;;;;;;;;24.70;51.80;;;;;;5021463;28;20567;-72
2022/07/26 08:28:51;;;;;;;;;;;24.70;51.70;;;;;;5014122;28;19937;-74
2022/07/26 08:31:19;;;;;;;;;;;24.80;51.80;;;;;;5017906;28;19936;-71
2022/07/26 08:33:46;;;;;;;;;;;24.80;51.90;;;;;;5021330;28;19929;-71
2022/07/26 08:36:13;;;;;;;;;;;24.80;51.90;;;;;;5019278;28;19949;-71
2022/07/26 08:38:40;;;;;;;;;;;24.80;51.60;;;;;;5024721;28;19936;-73
2022/07/26 08:41:07;;;;;;;;;;;24.80;51.30;;;;;;5022828;28;19932;-71
2022/07/26 08:43:33;;;;;;;;;;;24.90;51.60;;;;;;5022934;28;19963;-71
2022/07/26 08:46:02;;;;;;;;;;;24.90;51.40;;;;;;5017613;28;19925;-72
2022/07/26 08:48:28;;;;;;;;;;;24.90;51.20;;;;;;5019783;28;19936;-72
2022/07/26 08:50:55;;;;;;;;;;;24.90;51.60;;;;;;5016170;28;19933;-72
2022/07/26 08:53:22;;;;;;;;;;;24.90;51.10;;;;;;5018335;28;20527;-70
2022/07/26 08:55:49;;;;;;;;;;;25.00;51.10;;;;;;5019928;28;20439;-75
2022/07/26 08:58:15;;;;;;;;;;;25.00;51.00;;;;;;5013375;28;20312;-72
2022/07/26 09:00:43;;;;;;;;;;;25.00;50.50;;;;;;5015216;28;19940;-74
2022/07/26 09:03:23;;;;;;;;;;;25.10;50.60;;;;;;5018839;28;20719;-73
2022/07/26 09:05:50;;;;;;;;;;;25.10;50.30;;;;;;5017254;28;19926;-72
2022/07/26 09:08:23;;;;;;;;;;;25.10;50.10;;;;;;5016090;28;19929;-82
2022/07/26 09:10:50;;;;;;;;;;;25.10;50.20;;;;;;5012985;28;20308;-80
2022/07/26 09:13:16;;;;;;;;;;;25.20;49.80;;;;;;5016665;28;19952;-76
2022/07/26 09:15:43;;;;;;;;;;;25.10;49.60;;;;;;5014241;28;20018;-77
2022/07/26 09:18:24;;;;;;;;;;;25.10;49.60;;;;;;5014583;28;19929;-77
2022/07/26 09:20:51;;;;;;;;;;;25.20;49.80;;;;;;5013902;28;19936;-77
2022/07/26 09:23:17;;;;;;;;;;;25.20;49.50;;;;;;5017620;28;19929;-78
2022/07/26 09:25:45;;;;;;;;;;;25.20;49.40;;;;;;5017261;28;19929;-77
2022/07/26 09:28:21;;;;;;;;;;;25.30;49.30;;;;;;5017599;28;19925;-78
2022/07/26 09:30:51;;;;;;;;;;;25.30;48.90;;;;;;5017958;28;20415;-77
2022/07/26 09:33:19;;;;;;;;;;;25.30;49.20;;;;;;5015679;28;19930;-78
2022/07/26 09:36:15;;;;;;;;;;;25.30;49.30;;;;;;5018722;28;19936;-78
2022/07/26 09:38:42;;;;;;;;;;;25.30;49.20;;;;;;5018858;28;20405;-78
2022/07/26 09:41:18;;;;;;;;;;;25.40;48.90;;;;;;5017281;28;19940;-79
2022/07/26 09:43:45;;;;;;;;;;;25.40;48.70;;;;;;5012546;28;20683;-78
2022/07/26 09:46:12;;;;;;;;;;;25.40;48.70;;;;;;5017287;28;19933;-79
2022/07/26 09:48:40;;;;;;;;;;;25.50;48.40;;;;;;5017510;28;20416;-77
2022/07/26 09:51:07;;;;;;;;;;;25.50;48.00;;;;;;5019203;28;20717;-77
2022/07/26 09:53:38;;;;;;;;;;;25.60;47.90;;;;;;5018391;28;19949;-77
2022/07/26 09:56:05;;;;;;;;;;;25.60;47.80;;;;;;5019190;28;20023;-78
2022/07/26 09:58:32;;;;;;;;;;;25.60;47.70;;;;;;5020736;28;19929;-77
2022/07/26 10:00:59;;;;;;;;;;;25.70;47.90;;;;;;5019921;28;19929;-77
2022/07/26 10:03:25;;;;;;;;;;;25.70;47.70;;;;;;5021338;28;19934;-78
2022/07/26 10:05:54;;;;;;;;;;;25.70;47.90;;;;;;5020914;28;19940;-77
2022/07/26 10:08:21;;;;;;;;;;;25.80;48.10;;;;;;5016779;28;20021;-77
2022/07/26 10:10:49;;;;;;;;;;;25.80;47.90;;;;;;5016110;28;19967;-76
2022/07/26 10:13:16;;;;;;;;;;;25.80;47.50;;;;;;5020724;28;19951;-77
2022/07/26 10:15:44;;;;;;;;;;;25.90;47.00;;;;;;5022681;28;19936;-77
2022/07/26 10:18:11;;;;;;;;;;;25.90;46.90;;;;;;5020318;28;19929;-78
2022/07/26 10:20:39;;;;;;;;;;;26.00;46.40;;;;;;5017572;28;19929;-77
2022/07/26 10:23:31;;;;;;;;;;;26.00;46.20;;;;;;5018544;28;19953;-77
2022/07/26 10:25:57;;;;;;;;;;;26.10;46.30;;;;;;5022890;28;20006;-78
2022/07/26 10:28:25;;;;;;;;;;;26.10;46.00;;;;;;5015852;28;19929;-77
2022/07/26 10:30:52;;;;;;;;;;;26.20;46.10;;;;;;5021388;28;19932;-77
2022/07/26 10:33:22;;;;;;;;;;;26.20;46.30;;;;;;5022397;28;20428;-77
2022/07/26 10:35:48;;;;;;;;;;;26.30;46.20;;;;;;5020354;28;20022;-76
2022/07/26 10:38:22;;;;;;;;;;;26.30;46.10;;;;;;5022514;28;19933;-77
2022/07/26 10:40:55;;;;;;;;;;;26.40;45.90;;;;;;5023744;28;19929;-76
2022/07/26 10:43:22;;;;;;;;;;;26.40;45.70;;;;;;5021932;28;19940;-80
2022/07/26 10:45:48;;;;;;;;;;;26.50;46.10;;;;;;5020583;28;19936;-78
2022/07/26 10:48:17;;;;;;;;;;;26.50;46.10;;;;;;5013925;28;20515;-76
2022/07/26 10:50:45;;;;;;;;;;;26.50;46.00;;;;;;5021366;28;20404;-76
2022/07/26 10:53:17;;;;;;;;;;;26.60;46.00;;;;;;5022965;28;20459;-76
2022/07/26 10:55:49;;;;;;;;;;;26.60;45.40;;;;;;5020890;28;20122;-78
2022/07/26 10:58:16;;;;;;;;;;;26.60;45.30;;;;;;5020213;28;19940;-78
2022/07/26 11:00:53;;;;;;;;;;;26.60;45.50;;;;;;5019418;28;22016;-77
2022/07/26 11:03:20;;;;;;;;;;;26.70;45.80;;;;;;5019680;28;19929;-78
2022/07/26 11:05:46;;;;;;;;;;;26.80;46.20;;;;;;5021308;28;19929;-71
2022/07/26 11:08:13;;;;;;;;;;;26.80;46.40;;;;;;5024014;28;19929;-75
2022/07/26 11:10:40;;;;;;;;;;;26.80;45.90;;;;;;5023469;28;19929;-71
2022/07/26 11:13:09;;;;;;;;;;;26.90;45.40;;;;;;5023630;28;20732;-71
2022/07/26 11:15:36;;;;;;;;;;;26.90;45.00;;;;;;5020010;28;21037;-71
2022/07/26 11:18:14;;;;;;;;;;;26.90;45.20;;;;;;5025702;28;19937;-70
2022/07/26 11:20:41;;;;;;;;;;;26.90;45.60;;;;;;5021152;28;20019;-71
2022/07/26 11:23:34;;;;;;;;;;;27.00;45.00;;;;;;5022210;28;19933;-76
2022/07/26 11:26:08;;;;;;;;;;;27.00;44.90;;;;;;4984383;28;19929;-70
2022/07/26 11:28:47;;;;;;;;;;;27.00;44.80;;;;;;5013661;28;19940;-71
2022/07/26 11:31:13;;;;;;;;;;;27.10;44.00;;;;;;5020798;28;20024;-70
2022/07/26 11:33:42;;;;;;;;;;;27.10;43.20;;;;;;5020827;28;20531;-72
2022/07/26 11:36:08;;;;;;;;;;;27.20;43.60;;;;;;5021580;28;19936;-73
2022/07/26 11:38:48;;;;;;;;;;;27.20;44.00;;;;;;5020876;28;19940;-71
2022/07/26 11:41:18;;;;;;;;;;;27.30;43.60;;;;;;5034966;28;19933;-76
2022/07/26 11:43:46;;;;;;;;;;;27.30;43.20;;;;;;5016191;28;19960;-77
2022/07/26 11:46:12;;;;;;;;;;;27.40;43.40;;;;;;5015783;28;19933;-79
2022/07/26 11:48:45;;;;;;;;;;;27.50;43.40;;;;;;5018810;28;20314;-77
2022/07/26 11:51:12;;;;;;;;;;;27.50;43.60;;;;;;5021934;28;20369;-78
2022/07/26 11:53:38;;;;;;;;;;;27.50;43.30;;;;;;5021596;28;20638;-77
2022/07/26 11:56:12;;;;;;;;;;;27.60;43.70;;;;;;5021441;28;20136;-77
2022/07/26 11:58:39;;;;;;;;;;;27.60;43.20;;;;;;5019445;28;19952;-78
2022/07/26 12:01:08;;;;;;;;;;;27.60;42.90;;;;;;5019874;28;19937;-78
2022/07/26 12:03:34;;;;;;;;;;;27.70;43.20;;;;;;5024675;28;19929;-79
2022/07/26 12:06:02;;;;;;;;;;;27.80;44.40;;;;;;5017861;28;20415;-78
2022/07/26 12:08:38;;;;;;;;;;;27.80;42.90;;;;;;5013448;28;19933;-77
2022/07/26 12:11:04;;;;;;;;;;;27.80;42.70;;;;;;5015412;28;19940;-79
2022/07/26 12:13:31;;;;;;;;;;;27.90;42.10;;;;;;5018531;28;19925;-77
2022/07/26 12:15:58;;;;;;;;;;;27.90;42.90;;;;;;5019655;28;19930;-77
2022/07/26 12:18:26;;;;;;;;;;;27.90;43.10;;;;;;5015104;28;19959;-77
2022/07/26 12:21:03;;;;;;;;;;;28.00;42.70;;;;;;5021468;28;19929;-77
2022/07/26 12:23:39;;;;;;;;;;;28.00;42.20;;;;;;5019280;28;21181;-78
2022/07/26 12:26:17;;;;;;;;;;;28.10;41.60;;;;;;5023667;28;19933;-78
2022/07/26 12:28:44;;;;;;;;;;;28.10;42.50;;;;;;5027442;28;19925;-78
2022/07/26 12:31:21;;;;;;;;;;;28.20;43.70;;;;;;5033680;28;19929;-78
2022/07/26 12:33:50;;;;;;;;;;;28.20;42.80;;;;;;5022024;28;20318;-78
2022/07/26 12:36:17;;;;;;;;;;;28.30;45.10;;;;;;5027588;28;20391;-78
2022/07/26 12:38:44;;;;;;;;;;;28.30;44.70;;;;;;5019320;28;20420;-78
2022/07/26 12:41:10;;;;;;;;;;;28.30;42.30;;;;;;5022045;28;19941;-77
2022/07/26 12:43:40;;;;;;;;;;;28.40;43.10;;;;;;5017999;28;19940;-79
2022/07/26 12:46:06;;;;;;;;;;;28.50;41.60;;;;;;5018347;28;19929;-79
2022/07/26 12:48:33;;;;;;;;;;;28.50;43.70;;;;;;5016653;28;19933;-78
2022/07/26 12:51:01;;;;;;;;;;;28.50;43.50;;;;;;5016871;28;19933;-77
2022/07/26 12:53:27;;;;;;;;;;;28.60;42.80;;;;;;5010609;28;19933;-77
2022/07/26 12:55:54;;;;;;;;;;;28.70;41.80;;;;;;5010378;28;19936;-78
2022/07/26 12:58:20;;;;;;;;;;;28.70;40.90;;;;;;5018513;28;19933;-76
2022/07/26 13:00:47;;;;;;;;;;;28.80;41.10;;;;;;5021984;28;19929;-78
2022/07/26 13:03:14;;;;;;;;;;;28.80;41.90;;;;;;5021080;28;19933;-78
2022/07/26 13:05:40;;;;;;;;;;;28.90;41.80;;;;;;5015985;28;19984;-77
2022/07/26 13:08:08;;;;;;;;;;;28.90;42.70;;;;;;5021310;28;20380;-77
2022/07/26 13:10:35;;;;;;;;;;;29.00;42.20;;;;;;5022048;28;20313;-78
2022/07/26 13:13:01;;;;;;;;;;;29.00;43.30;;;;;;5012884;28;20718;-77
2022/07/26 13:15:28;;;;;;;;;;;29.00;41.80;;;;;;5013358;28;19936;-77
2022/07/26 13:17:55;;;;;;;;;;;29.10;43.20;;;;;;5019310;28;20344;-76
2022/07/26 13:20:22;;;;;;;;;;;29.00;42.00;;;;;;5017098;28;19937;-76
2022/07/26 13:22:48;;;;;;;;;;;29.10;42.10;;;;;;5021107;28;19936;-77
2022/07/26 13:25:16;;;;;;;;;;;29.10;43.70;;;;;;5022244;28;20472;-77
2022/07/26 13:27:43;;;;;;;;;;;29.10;44.00;;;;;;5014162;28;19933;-77
2022/07/26 13:30:10;;;;;;;;;;;29.10;43.60;;;;;;5016284;28;19929;-78
2022/07/26 13:32:36;;;;;;;;;;;29.10;43.80;;;;;;5017391;28;20905;-77
2022/07/26 13:35:03;;;;;;;;;;;29.10;43.60;;;;;;5019893;28;20535;-77
2022/07/26 13:37:30;;;;;;;;;;;29.10;43.60;;;;;;5024763;28;19936;-76
2022/07/26 13:39:56;;;;;;;;;;;29.10;44.00;;;;;;5025615;28;19945;-76
2022/07/26 13:42:24;;;;;;;;;;;29.00;44.40;;;;;;5025514;28;19929;-76
2022/07/26 13:44:51;;;;;;;;;;;29.00;44.60;;;;;;5021858;28;20385;-78
2022/07/26 13:47:17;;;;;;;;;;;29.00;43.60;;;;;;5023140;28;19925;-78
2022/07/26 13:49:44;;;;;;;;;;;29.00;44.10;;;;;;5016356;28;19929;-78
2022/07/26 13:52:10;;;;;;;;;;;29.00;44.00;;;;;;5017398;28;19932;-78
2022/07/26 13:54:37;;;;;;;;;;;29.00;44.20;;;;;;5019087;28;19929;-76
2022/07/26 13:57:06;;;;;;;;;;;29.00;43.80;;;;;;5017110;28;19929;-76
2022/07/26 13:59:34;;;;;;;;;;;29.00;44.10;;;;;;5014936;28;20423;-77
2022/07/26 14:02:00;;;;;;;;;;;29.00;43.10;;;;;;5020673;28;20420;-76
2022/07/26 14:04:27;;;;;;;;;;;29.10;43.70;;;;;;5024985;28;20649;-77
2022/07/26 14:06:54;;;;;;;;;;;29.10;42.90;;;;;;5022754;28;20016;-76
2022/07/26 14:09:21;;;;;;;;;;;29.10;42.80;;;;;;5022026;28;20437;-78
2022/07/26 14:11:47;;;;;;;;;;;29.10;42.50;;;;;;5024963;28;19940;-78
2022/07/26 14:14:14;;;;;;;;;;;29.20;44.10;;;;;;5023100;28;19929;-76
2022/07/26 14:16:42;;;;;;;;;;;29.20;43.60;;;;;;5019968;28;19929;-76
2022/07/26 14:19:08;;;;;;;;;;;29.30;44.40;;;;;;5022298;28;19987;-77